Time;durP1;ratioP1;P1;durP2;ratioP2;P2;SDS_P1;SDS_P2;PMS_P1;PMS_P2;Temp;Humidity;BMP_temperature;BMP_pressure;BME280_temperature;BME280_humidity;BME280_pressure;Samples;Min_cycle;Max_cycle;Signal;HPM_P1;HPM_P2
2022/06/11 00:00:45;;;;;;;11.15;6.57;;;;;;;11.66;85.95;96716.78;2017668;29;20053;-60
2022/06/11 00:01:49;;;;;;;9.05;6.38;;;;;;;11.67;86.18;96725.44;2010138;29;20445;-60
2022/06/11 00:02:50;;;;;;;10.43;6.50;;;;;;;11.64;85.49;96722.97;2009501;29;20062;-61
2022/06/11 00:03:55;;;;;;;6.93;5.65;;;;;;;11.63;86.27;96716.91;2010145;29;20057;-60
2022/06/11 00:04:56;;;;;;;9.07;6.50;;;;;;;11.64;85.59;96713.41;2025529;29;20049;-60
2022/06/11 00:05:57;;;;;;;9.23;6.47;;;;;;;11.61;86.00;96721.31;2010085;29;20053;-60
2022/06/11 00:07:03;;;;;;;9.73;5.88;;;;;;;11.58;85.55;96716.25;2002083;29;20510;-61
2022/06/11 00:08:05;;;;;;;10.05;6.25;;;;;;;11.60;85.63;96718.78;2010599;29;20050;-61
2022/06/11 00:09:06;;;;;;;10.55;6.55;;;;;;;11.58;86.04;96713.66;2009829;29;20559;-62
2022/06/11 00:10:09;;;;;;;9.85;6.53;;;;;;;11.58;86.03;96718.00;2001882;29;20065;-61
2022/06/11 00:11:10;;;;;;;7.70;5.78;;;;;;;11.57;86.08;96714.53;2010423;29;20045;-61
2022/06/11 00:12:12;;;;;;;11.10;6.50;;;;;;;11.55;85.46;96718.13;2009889;29;20042;-60
2022/06/11 00:13:13;;;;;;;9.13;6.72;;;;;;;11.50;86.36;96714.88;2009665;29;20102;-62
2022/06/11 00:14:15;;;;;;;10.35;6.90;;;;;;;11.48;86.36;96709.72;2010588;29;20067;-61
2022/06/11 00:15:16;;;;;;;9.57;6.90;;;;;;;11.48;86.07;96713.16;2017369;29;20056;-60
2022/06/11 00:16:18;;;;;;;10.48;6.50;;;;;;;11.48;85.86;96710.56;2002454;29;20058;-61
2022/06/11 00:17:20;;;;;;;11.05;7.22;;;;;;;11.47;86.12;96715.84;2002368;29;20557;-62
2022/06/11 00:18:21;;;;;;;9.68;6.25;;;;;;;11.46;85.92;96706.31;2020870;29;20048;-63
2022/06/11 00:19:23;;;;;;;10.60;6.95;;;;;;;11.44;85.68;96705.53;2017162;29;20052;-61
2022/06/11 00:20:25;;;;;;;9.32;6.45;;;;;;;11.41;85.44;96706.53;2017358;29;20057;-61
2022/06/11 00:21:28;;;;;;;11.80;7.20;;;;;;;11.40;85.97;96709.16;2003912;29;20057;-61
2022/06/11 00:24:14;;;;;;;11.40;6.47;;;;;;;11.34;85.78;96710.25;2020694;29;20053;-60
2022/06/11 00:25:15;;;;;;;8.73;6.38;;;;;;;11.34;86.01;96712.03;2017040;29;20571;-60
2022/06/11 00:26:16;;;;;;;10.43;6.55;;;;;;;11.32;85.82;96709.47;2002121;29;20061;-59
2022/06/11 00:27:18;;;;;;;14.52;7.38;;;;;;;11.29;86.69;96714.78;2010038;29;20725;-57
2022/06/11 00:28:19;;;;;;;11.30;6.75;;;;;;;11.26;86.47;96707.94;2022587;29;20083;-58
2022/06/11 00:29:21;;;;;;;9.95;6.35;;;;;;;11.27;85.77;96711.41;2017253;29;20060;-59
2022/06/11 00:30:22;;;;;;;12.80;7.32;;;;;;;11.25;86.16;96714.06;2010407;29;20061;-59
2022/06/11 00:31:24;;;;;;;9.85;7.05;;;;;;;11.23;86.97;96713.28;2017648;29;20056;-60
2022/06/11 00:32:25;;;;;;;10.32;7.10;;;;;;;11.21;86.75;96715.06;2016176;29;20053;-59
2022/06/11 00:33:27;;;;;;;9.68;6.40;;;;;;;11.18;86.75;96714.38;2016929;29;20056;-59
2022/06/11 00:34:28;;;;;;;8.65;7.13;;;;;;;11.18;85.93;96716.97;2010180;29;20537;-59
2022/06/11 00:35:29;;;;;;;8.40;6.80;;;;;;;11.17;86.61;96716.13;2001835;29;20060;-59
2022/06/11 00:36:30;;;;;;;10.38;6.72;;;;;;;11.15;86.18;96714.47;2008371;29;20453;-59
2022/06/11 00:37:32;;;;;;;10.57;6.38;;;;;;;11.12;86.72;96715.44;2009674;29;20049;-59
2022/06/11 00:38:33;;;;;;;9.65;6.95;;;;;;;11.09;86.43;96714.69;2002269;29;20046;-59
2022/06/11 00:39:36;;;;;;;9.50;6.38;;;;;;;11.07;86.53;96717.38;2011567;29;20061;-59
2022/06/11 00:40:38;;;;;;;10.18;7.05;;;;;;;11.06;87.03;96713.06;2002616;29;20049;-60
2022/06/11 00:41:40;;;;;;;9.13;6.72;;;;;;;11.03;87.34;96714.00;2006851;29;20053;-59
2022/06/11 00:42:42;;;;;;;11.73;7.32;;;;;;;10.99;86.98;96715.06;2016918;29;20041;-58
2022/06/11 00:43:43;;;;;;;10.07;7.43;;;;;;;11.00;87.22;96713.28;2009849;29;20048;-59
2022/06/11 00:44:44;;;;;;;10.15;6.90;;;;;;;10.98;86.47;96705.53;2008280;29;20049;-60
2022/06/11 00:46:10;;;;;;;9.60;6.32;;;;;;;10.97;86.44;96710.81;2009612;29;20438;-59
2022/06/11 00:47:17;;;;;;;8.80;6.50;;;;;;;10.96;87.31;96714.28;2012817;29;20048;-58
2022/06/11 00:48:23;;;;;;;10.05;6.70;;;;;;;10.98;87.31;96710.75;2017316;29;20053;-59
2022/06/11 00:49:33;;;;;;;10.18;7.25;;;;;;;10.98;86.86;96717.69;2018174;29;20049;-59
2022/06/11 00:50:51;;;;;;;10.30;6.38;;;;;;;10.96;87.26;96709.97;2017057;29;20052;-59
2022/06/11 00:52:00;;;;;;;10.00;6.80;;;;;;;10.96;87.30;96715.16;2011823;29;20456;-60
2022/06/11 00:53:01;;;;;;;10.40;7.25;;;;;;;10.92;87.29;96712.72;2003222;29;20410;-59
2022/06/11 00:54:05;;;;;;;13.15;7.75;;;;;;;10.92;87.51;96708.38;2010945;29;20049;-58
2022/06/11 00:55:26;;;;;;;11.18;7.07;;;;;;;10.92;87.41;96708.38;2010693;29;20045;-59
2022/06/11 00:56:32;;;;;;;12.55;7.65;;;;;;;10.93;86.97;96709.22;1999588;29;20068;-59
2022/06/11 00:57:38;;;;;;;9.68;7.13;;;;;;;10.90;87.26;96709.34;2011177;29;20045;-59
2022/06/11 00:58:41;;;;;;;11.65;7.03;;;;;;;10.87;87.38;96707.69;2001491;29;20057;-58
2022/06/11 00:59:45;;;;;;;10.65;7.70;;;;;;;10.91;87.78;96705.84;1995371;29;20059;-58
2022/06/11 01:00:50;;;;;;;12.98;7.53;;;;;;;10.90;87.14;96709.34;2002400;29;20054;-59
2022/06/11 01:01:51;;;;;;;12.82;7.97;;;;;;;10.89;87.89;96711.09;2010383;29;20053;-60
2022/06/11 01:02:52;;;;;;;11.70;8.27;;;;;;;10.88;87.60;96706.81;2009605;29;20556;-59
2022/06/11 01:03:55;;;;;;;11.20;7.22;;;;;;;10.88;87.79;96704.22;2009878;29;20050;-60
2022/06/11 01:04:59;;;;;;;13.68;8.05;;;;;;;10.87;87.81;96704.25;2002252;29;20061;-58
2022/06/11 01:06:28;;;;;;;12.43;8.48;;;;;;;10.85;87.95;96700.88;2010903;29;20053;-58
2022/06/11 01:07:43;;;;;;;10.32;7.30;;;;;;;10.81;87.29;96695.78;2008812;29;20045;-57
2022/06/11 01:08:53;;;;;;;14.77;7.90;;;;;;;10.83;86.95;96698.34;2002056;29;20053;-60
2022/06/11 01:10:26;;;;;;;13.82;8.45;;;;;;;10.79;87.92;96702.78;2003090;29;20070;-59
2022/06/11 01:11:33;;;;;;;10.80;7.88;;;;;;;10.79;87.37;96701.94;2002767;29;20045;-58
2022/06/11 01:12:40;;;;;;;14.95;8.65;;;;;;;10.74;87.04;96693.47;2011445;29;20041;-59
2022/06/11 01:14:06;;;;;;;12.30;8.70;;;;;;;10.71;87.14;96697.03;2009847;29;20045;-58
2022/06/11 01:15:12;;;;;;;13.70;8.88;;;;;;;10.68;88.08;96698.88;2008284;29;20696;-58
2022/06/11 01:16:26;;;;;;;13.05;8.10;;;;;;;10.67;87.76;96697.22;2009963;29;20640;-60
2022/06/11 01:17:30;;;;;;;11.98;8.38;;;;;;;10.66;88.33;96696.34;2003677;29;20054;-60
2022/06/11 01:18:44;;;;;;;14.65;9.30;;;;;;;10.64;87.96;96692.09;1999284;29;20058;-59
2022/06/11 01:20:03;;;;;;;12.63;8.25;;;;;;;10.62;88.37;96693.94;2003654;29;20050;-58
2022/06/11 01:21:27;;;;;;;17.95;10.30;;;;;;;10.57;88.20;96688.91;2011579;29;20057;-59
2022/06/11 01:22:49;;;;;;;14.48;9.48;;;;;;;10.55;88.38;96688.94;2012455;29;20114;-59
2022/06/11 01:24:13;;;;;;;12.25;9.23;;;;;;;10.52;89.01;96689.06;2011846;29;20049;-59
2022/06/11 01:25:36;;;;;;;15.38;9.85;;;;;;;10.48;88.40;96689.25;2004540;29;20049;-57
2022/06/11 01:26:37;;;;;;;11.85;8.98;;;;;;;10.46;88.83;96685.84;2004886;29;20042;-59
2022/06/11 01:27:46;;;;;;;13.15;8.50;;;;;;;10.46;88.97;96685.84;2002379;29;20044;-59
2022/06/11 01:29:26;;;;;;;12.73;9.70;;;;;;;10.45;88.55;96685.00;2009506;29;20053;-59
2022/06/11 01:30:32;;;;;;;14.38;8.75;;;;;;;10.45;88.56;96686.72;2006872;29;20090;-59
2022/06/11 01:31:54;;;;;;;16.83;9.55;;;;;;;10.42;88.71;96685.09;2007353;29;20540;-59
2022/06/11 01:32:59;;;;;;;13.43;9.60;;;;;;;10.41;89.21;96687.75;2005074;29;20045;-59
2022/06/11 01:34:20;;;;;;;13.10;9.48;;;;;;;10.37;88.68;96682.66;2010134;29;20104;-59
2022/06/11 01:35:32;;;;;;;14.57;9.05;;;;;;;10.36;88.79;96682.72;2009819;29;20037;-58
2022/06/11 01:36:37;;;;;;;14.82;9.20;;;;;;;10.34;89.55;96682.78;2003579;29;20054;-59
2022/06/11 01:37:52;;;;;;;14.85;8.55;;;;;;;10.33;88.80;96681.06;1990194;29;20415;-59
2022/06/11 01:38:58;;;;;;;12.77;8.15;;;;;;;10.29;89.05;96673.44;2011237;29;20060;-59
2022/06/11 01:40:05;;;;;;;16.10;9.38;;;;;;;10.32;88.71;96692.38;2008925;29;20543;-59
2022/06/11 01:41:27;;;;;;;20.08;10.13;;;;;;;10.30;88.70;96673.41;2003678;29;20064;-58
2022/06/11 01:42:33;;;;;;;12.40;9.15;;;;;;;10.31;89.02;96685.47;2016667;29;20120;-59
2022/06/11 01:43:38;;;;;;;13.82;8.55;;;;;;;10.28;89.32;96682.97;2009857;29;20041;-59
2022/06/11 01:44:40;;;;;;;13.60;9.00;;;;;;;10.28;88.90;96682.13;2002361;29;20045;-59
2022/06/11 01:45:42;;;;;;;13.48;10.02;;;;;;;10.28;89.47;96685.56;2009886;29;20046;-58
2022/06/11 01:46:45;;;;;;;14.40;9.40;;;;;;;10.26;89.29;96682.16;2001474;29;20053;-59
2022/06/11 01:47:46;;;;;;;13.90;9.35;;;;;;;10.24;89.38;96683.13;2008165;29;20045;-59
2022/06/11 01:48:54;;;;;;;15.20;9.23;;;;;;;10.23;89.16;96684.84;2016169;29;20561;-59
2022/06/11 01:49:55;;;;;;;12.95;9.38;;;;;;;10.23;88.87;96689.19;2009740;29;20060;-60
2022/06/11 01:51:20;;;;;;;14.00;9.18;;;;;;;10.22;89.35;96690.13;2008925;29;20060;-59
2022/06/11 01:52:31;;;;;;;12.75;8.85;;;;;;;10.20;89.44;96690.16;2004230;29;20045;-59
2022/06/11 01:53:34;;;;;;;13.20;9.85;;;;;;;10.19;89.06;96685.03;2012985;29;20045;-59
2022/06/11 01:55:02;;;;;;;14.55;9.18;;;;;;;10.17;89.50;96687.66;2009073;29;20070;-58
2022/06/11 01:56:29;;;;;;;14.80;9.27;;;;;;;10.17;89.48;96682.47;2009400;29;20227;-59
2022/06/11 01:57:52;;;;;;;14.75;9.25;;;;;;;10.18;88.86;96678.13;2012546;29;20067;-59
2022/06/11 01:59:05;;;;;;;11.68;8.40;;;;;;;10.14;89.35;96683.44;2011838;29;20056;-59
2022/06/11 02:00:11;;;;;;;13.77;9.20;;;;;;;10.19;89.81;96682.44;2002996;29;20411;-57
2022/06/11 02:01:50;;;;;;;13.20;9.32;;;;;;;10.15;89.30;96684.28;2002860;29;20049;-59
2022/06/11 02:03:12;;;;;;;14.13;9.63;;;;;;;10.10;89.41;96680.97;2019829;29;20618;-58
2022/06/11 02:04:26;;;;;;;15.23;9.68;;;;;;;10.07;89.73;96683.69;2009696;29;20045;-59
2022/06/11 02:05:32;;;;;;;14.43;9.38;;;;;;;10.04;89.41;96684.63;2010588;29;20061;-57
2022/06/11 02:06:35;;;;;;;16.35;9.80;;;;;;;10.01;89.56;96684.75;2009365;29;20041;-59
2022/06/11 02:07:45;;;;;;;19.15;9.98;;;;;;;10.02;89.71;96683.84;2008477;29;20045;-59
2022/06/11 02:09:12;;;;;;;14.88;9.95;;;;;;;9.97;89.58;96684.91;2011604;29;20049;-58
2022/06/11 02:10:16;;;;;;;14.50;9.45;;;;;;;9.97;89.33;96688.38;2009237;29;20049;-61
2022/06/11 02:11:37;;;;;;;15.13;9.57;;;;;;;9.96;89.45;96688.41;2002062;29;20406;-59
2022/06/11 02:12:42;;;;;;;15.80;10.13;;;;;;;9.94;89.96;96689.31;2011828;29;20049;-57
2022/06/11 02:13:56;;;;;;;13.35;9.25;;;;;;;9.93;89.80;96685.00;1994766;29;20058;-59
2022/06/11 02:15:01;;;;;;;14.35;9.85;;;;;;;9.92;89.62;96680.72;2005299;29;20050;-59
2022/06/11 02:16:24;;;;;;;17.15;9.88;;;;;;;9.90;90.06;96684.28;2009803;29;20441;-59
2022/06/11 02:17:31;;;;;;;15.18;9.57;;;;;;;9.90;89.89;96684.28;2003747;29;20056;-59
2022/06/11 02:18:32;;;;;;;14.00;9.00;;;;;;;9.87;90.21;96689.56;2011059;29;20048;-60
2022/06/11 02:19:36;;;;;;;17.75;10.82;;;;;;;9.84;89.71;96700.88;2009230;29;20056;-59
2022/06/11 02:20:42;;;;;;;13.98;9.85;;;;;;;9.84;90.25;96685.31;2002046;29;20046;-58
2022/06/11 02:21:53;;;;;;;13.65;9.60;;;;;;;9.85;90.07;96696.53;1996413;29;20042;-59
2022/06/11 02:23:00;;;;;;;17.50;10.77;;;;;;;9.86;90.20;96688.72;2003977;29;20053;-59
2022/06/11 02:24:06;;;;;;;16.05;11.35;;;;;;;9.85;90.45;96686.16;2015850;29;20072;-60
2022/06/11 02:25:13;;;;;;;16.88;10.82;;;;;;;9.86;90.18;96693.03;2001724;29;20058;-59
2022/06/11 02:26:17;;;;;;;15.93;11.05;;;;;;;9.82;89.98;96697.50;2009196;29;20072;-59
2022/06/11 02:27:22;;;;;;;16.17;11.27;;;;;;;9.85;90.67;96704.31;2009075;29;20068;-59
2022/06/11 02:28:28;;;;;;;19.23;11.45;;;;;;;9.83;90.70;96693.16;2008497;29;20064;-60
2022/06/11 02:29:31;;;;;;;16.48;11.23;;;;;;;9.82;90.55;96697.50;2009144;29;20449;-60
2022/06/11 02:30:32;;;;;;;18.33;10.65;;;;;;;9.78;90.56;96695.88;2001633;29;20053;-59
2022/06/11 02:31:38;;;;;;;15.82;10.73;;;;;;;9.78;90.65;96701.06;2015110;29;20052;-60
2022/06/11 02:32:40;;;;;;;16.98;11.27;;;;;;;9.76;90.39;96700.31;2014163;29;20049;-61
2022/06/11 02:33:41;;;;;;;17.27;11.57;;;;;;;9.76;90.30;96705.50;2020126;29;20072;-60
2022/06/11 02:34:47;;;;;;;16.42;10.90;;;;;;;9.77;90.67;96708.91;2016691;29;20049;-58
2022/06/11 02:35:54;;;;;;;16.42;11.45;;;;;;;9.75;90.66;96706.38;2011982;29;20112;-60
2022/06/11 02:37:00;;;;;;;16.13;11.23;;;;;;;9.73;90.79;96705.59;2012428;29;20070;-59
2022/06/11 02:38:01;;;;;;;16.17;10.07;;;;;;;9.71;91.16;96709.97;2003169;29;20062;-57
2022/06/11 02:39:04;;;;;;;17.55;11.18;;;;;;;9.70;90.73;96703.06;1996989;29;20050;-59
2022/06/11 02:40:09;;;;;;;18.25;11.32;;;;;;;9.67;90.63;96706.59;2019541;29;20060;-59
2022/06/11 02:41:16;;;;;;;16.67;11.05;;;;;;;9.66;90.76;96715.28;2011555;29;20049;-59
2022/06/11 02:42:19;;;;;;;19.83;10.65;;;;;;;9.64;90.43;96711.91;2005366;29;20449;-59
2022/06/11 02:43:20;;;;;;;18.92;11.57;;;;;;;9.63;90.53;96714.56;2004013;29;20564;-59
2022/06/11 02:44:21;;;;;;;18.10;11.00;;;;;;;9.61;90.84;96709.41;2011411;29;20394;-59
2022/06/11 02:45:22;;;;;;;18.65;11.90;;;;;;;9.59;90.42;96718.13;2004131;29;20050;-59
2022/06/11 02:46:44;;;;;;;15.43;10.95;;;;;;;9.60;91.13;96710.31;2004377;29;20413;-59
2022/06/11 02:47:47;;;;;;;19.13;11.60;;;;;;;9.60;90.99;96718.09;2009252;29;20048;-59
2022/06/11 02:48:48;;;;;;;19.13;11.43;;;;;;;9.55;90.72;96713.97;2016534;29;20449;-59
2022/06/11 02:49:50;;;;;;;17.25;11.27;;;;;;;9.53;91.09;96716.59;2011892;29;20065;-60
2022/06/11 02:50:51;;;;;;;15.10;10.93;;;;;;;9.53;91.00;96715.75;2008395;29;20429;-59
2022/06/11 02:51:53;;;;;;;18.08;11.55;;;;;;;9.50;91.36;96717.53;2018977;29;20057;-59
2022/06/11 02:52:55;;;;;;;15.65;11.27;;;;;;;9.49;90.88;96721.03;2018518;29;20068;-60
2022/06/11 02:53:56;;;;;;;16.80;11.23;;;;;;;9.48;91.18;96726.25;2004649;29;20050;-59
2022/06/11 02:54:57;;;;;;;22.23;12.50;;;;;;;9.46;91.48;96726.31;2011297;29;20064;-59
2022/06/11 02:55:58;;;;;;;13.45;10.32;;;;;;;9.46;91.47;96728.91;2011814;29;20049;-60
2022/06/11 02:57:01;;;;;;;16.05;10.52;;;;;;;9.44;91.01;96722.91;2010817;29;20106;-59
2022/06/11 02:58:02;;;;;;;20.90;10.73;;;;;;;9.44;91.23;96722.91;2019061;29;20048;-58
2022/06/11 02:59:04;;;;;;;15.70;10.50;;;;;;;9.43;91.27;96728.13;2019274;29;20052;-59
2022/06/11 03:00:06;;;;;;;15.02;10.27;;;;;;;9.42;91.57;96732.47;2019521;29;20051;-59
2022/06/11 03:01:08;;;;;;;18.67;11.27;;;;;;;9.40;91.29;96734.25;2019019;29;20060;-59
2022/06/11 03:02:09;;;;;;;21.13;12.20;;;;;;;9.39;91.37;96736.91;2018869;29;20052;-60
2022/06/11 03:03:10;;;;;;;16.95;11.48;;;;;;;9.38;91.63;96736.06;2011420;29;20630;-59
2022/06/11 03:04:11;;;;;;;19.55;11.38;;;;;;;9.35;91.66;96733.53;2012077;29;20064;-59
2022/06/11 03:05:15;;;;;;;18.70;11.52;;;;;;;9.32;91.25;96733.66;2011030;29;20061;-59
2022/06/11 03:06:17;;;;;;;19.88;11.75;;;;;;;9.33;91.47;96732.78;2004406;29;20053;-60
2022/06/11 03:07:19;;;;;;;16.33;11.02;;;;;;;9.32;91.55;96738.00;2011249;29;20537;-60
2022/06/11 03:08:21;;;;;;;22.15;12.52;;;;;;;9.30;91.01;96735.44;2011182;29;20053;-60
2022/06/11 03:09:24;;;;;;;19.30;11.38;;;;;;;9.30;91.98;96735.44;2003994;29;20054;-59
2022/06/11 03:10:25;;;;;;;19.33;12.13;;;;;;;9.32;91.70;96740.59;2012675;29;20045;-60
2022/06/11 03:11:27;;;;;;;19.63;11.93;;;;;;;9.31;91.35;96737.16;2004261;29;20046;-59
2022/06/11 03:12:28;;;;;;;19.58;11.82;;;;;;;9.28;91.26;96732.06;1996681;29;20046;-59
2022/06/11 03:13:30;;;;;;;18.20;11.70;;;;;;;9.28;91.44;96738.09;2003534;29;20049;-59
2022/06/11 03:14:31;;;;;;;17.00;11.35;;;;;;;9.28;91.30;96732.06;2011193;29;20627;-60
2022/06/11 03:15:32;;;;;;;16.23;10.68;;;;;;;9.29;91.47;96744.13;2003969;29;20053;-60
2022/06/11 03:16:35;;;;;;;21.48;11.57;;;;;;;9.27;91.80;96738.13;2011362;29;20041;-59
2022/06/11 03:17:36;;;;;;;16.90;11.05;;;;;;;9.28;91.53;96742.44;2018774;29;20052;-60
2022/06/11 03:18:38;;;;;;;18.48;10.93;;;;;;;9.26;91.26;96739.03;2011323;29;20049;-59
2022/06/11 03:19:39;;;;;;;18.55;11.05;;;;;;;9.27;91.56;96740.72;2019334;29;20045;-60
2022/06/11 03:20:41;;;;;;;20.48;11.82;;;;;;;9.28;91.35;96745.03;1996247;29;20454;-58
2022/06/11 03:21:42;;;;;;;17.25;11.02;;;;;;;9.27;91.30;96746.78;2003059;29;20436;-59
2022/06/11 03:22:43;;;;;;;16.48;10.75;;;;;;;9.30;91.36;96745.78;2011056;29;20069;-60
2022/06/11 03:23:45;;;;;;;14.95;9.60;;;;;;;9.29;91.32;96741.53;2003945;29;20057;-59
2022/06/11 03:24:46;;;;;;;15.25;9.48;;;;;;;9.29;91.46;96741.53;2011454;29;20045;-60
2022/06/11 03:25:47;;;;;;;14.10;10.40;;;;;;;9.29;91.50;96744.13;2010511;29;20069;-57
2022/06/11 03:26:49;;;;;;;17.77;11.18;;;;;;;9.30;91.39;96739.78;2003508;29;20049;-59
2022/06/11 03:27:51;;;;;;;18.30;9.82;;;;;;;9.31;91.21;96746.66;2011349;29;20053;-59
2022/06/11 03:28:52;;;;;;;16.65;11.40;;;;;;;9.31;91.49;96734.56;2004142;29;20544;-60
2022/06/11 03:29:53;;;;;;;14.50;9.73;;;;;;;9.32;91.19;96738.84;2011477;29;20049;-60
2022/06/11 03:30:54;;;;;;;15.77;10.95;;;;;;;9.34;91.36;96743.97;2019292;29;20057;-60
2022/06/11 03:31:56;;;;;;;14.77;10.45;;;;;;;9.37;91.29;96738.69;2007639;29;20049;-58
2022/06/11 03:32:57;;;;;;;14.93;10.45;;;;;;;9.38;91.65;96748.16;2018457;29;20044;-60
2022/06/11 03:33:58;;;;;;;16.20;10.70;;;;;;;9.37;91.05;96744.72;2026535;29;20060;-60
2022/06/11 03:34:59;;;;;;;16.50;10.23;;;;;;;9.38;91.39;96745.56;2018051;29;20076;-58
2022/06/11 03:36:03;;;;;;;17.15;11.57;;;;;;;9.37;91.66;96739.53;2013782;29;20131;-60
2022/06/11 03:37:04;;;;;;;18.33;10.23;;;;;;;9.38;91.18;96749.03;2011189;29;20049;-60
2022/06/11 03:38:07;;;;;;;15.27;10.07;;;;;;;9.37;91.84;96747.31;2010233;29;20049;-60
2022/06/11 03:39:09;;;;;;;17.25;11.27;;;;;;;9.39;91.11;96747.28;2010749;29;20136;-60
2022/06/11 03:40:10;;;;;;;15.60;10.27;;;;;;;9.41;91.41;96748.94;2003551;29;20054;-58
2022/06/11 03:41:12;;;;;;;17.33;11.30;;;;;;;9.42;91.74;96748.03;2016136;29;20073;-58
2022/06/11 03:42:13;;;;;;;15.43;10.27;;;;;;;9.45;91.78;96760.91;2011760;29;20049;-60
2022/06/11 03:43:14;;;;;;;15.70;10.82;;;;;;;9.45;91.26;96750.53;2011158;29;20135;-59
2022/06/11 03:44:16;;;;;;;17.45;11.60;;;;;;;9.48;91.25;96749.59;2010256;29;20058;-57
2022/06/11 03:45:17;;;;;;;16.80;10.77;;;;;;;9.49;91.54;96753.88;2002280;29;20054;-60
2022/06/11 03:46:18;;;;;;;17.50;11.05;;;;;;;9.49;91.34;96757.31;2009220;29;20054;-60
2022/06/11 03:47:20;;;;;;;14.13;10.10;;;;;;;9.53;91.45;96754.63;2009896;29;20395;-59
2022/06/11 03:48:22;;;;;;;15.20;10.20;;;;;;;9.56;91.78;96746.75;2010299;29;20064;-60
2022/06/11 03:49:23;;;;;;;19.13;10.52;;;;;;;9.58;91.49;96751.00;2018134;29;20057;-60
2022/06/11 03:50:27;;;;;;;18.50;11.32;;;;;;;9.60;91.94;96748.38;2001075;29;20316;-59
2022/06/11 03:51:29;;;;;;;17.67;9.98;;;;;;;9.65;91.21;96751.63;2002803;29;20045;-59
2022/06/11 03:52:30;;;;;;;13.23;9.55;;;;;;;9.67;91.16;96750.69;2017767;29;20049;-59
2022/06/11 03:53:31;;;;;;;14.90;9.88;;;;;;;9.70;91.43;96752.34;2017241;29;20425;-60
2022/06/11 03:54:33;;;;;;;14.90;10.25;;;;;;;9.75;91.61;96755.66;2001786;29;20054;-60
2022/06/11 03:55:34;;;;;;;18.42;10.98;;;;;;;9.77;91.01;96750.41;2017844;29;20049;-60
2022/06/11 03:56:35;;;;;;;14.27;10.25;;;;;;;9.79;91.14;96748.63;2017289;29;20045;-60
2022/06/11 03:57:37;;;;;;;18.58;10.85;;;;;;;9.80;91.61;96751.16;2002409;29;20061;-60
2022/06/11 03:58:39;;;;;;;17.58;10.18;;;;;;;9.82;91.23;96751.13;2009908;29;20057;-57
2022/06/11 03:59:40;;;;;;;13.65;9.75;;;;;;;9.83;91.06;96750.22;2009673;29;20096;-60
2022/06/11 04:02:03;;;;;;;14.48;9.48;;;;;;;9.88;90.99;96754.34;2012354;29;20524;-60
2022/06/11 04:03:04;;;;;;;14.60;9.13;;;;;;;9.92;91.04;96755.13;2010204;29;20057;-59
2022/06/11 04:04:08;;;;;;;15.77;9.27;;;;;;;9.94;91.12;96761.97;2010187;29;20049;-60
2022/06/11 04:05:10;;;;;;;15.52;8.63;;;;;;;9.96;90.96;96761.91;2010240;29;20049;-59
2022/06/11 04:06:14;;;;;;;16.05;9.07;;;;;;;9.99;91.01;96766.13;2017615;29;20045;-60
2022/06/11 04:07:15;;;;;;;13.77;8.95;;;;;;;10.03;90.66;96757.38;2018360;29;20053;-58
2022/06/11 04:08:16;;;;;;;12.98;9.38;;;;;;;10.02;90.75;96769.47;2009549;29;20049;-59
2022/06/11 04:09:24;;;;;;;11.80;9.00;;;;;;;10.07;90.40;96762.38;2002249;29;20057;-60
2022/06/11 04:10:25;;;;;;;15.02;8.70;;;;;;;10.11;90.56;96769.19;2018505;29;20052;-60
2022/06/11 04:11:26;;;;;;;14.13;8.45;;;;;;;10.16;90.15;96769.03;2002572;29;20438;-60
2022/06/11 04:12:28;;;;;;;15.80;7.85;;;;;;;10.23;89.45;96760.13;1995224;29;20050;-61
2022/06/11 04:13:29;;;;;;;12.05;8.38;;;;;;;10.26;89.32;96764.38;2010043;29;20056;-59
2022/06/11 04:14:31;;;;;;;12.80;7.68;;;;;;;10.33;88.76;96761.56;2010259;29;20041;-59
2022/06/11 04:15:32;;;;;;;16.90;7.68;;;;;;;10.37;89.28;96768.34;2018211;29;20061;-61
2022/06/11 04:16:46;;;;;;;11.18;7.57;;;;;;;10.42;89.22;96764.72;2009754;29;20053;-60
2022/06/11 04:17:47;;;;;;;13.15;8.63;;;;;;;10.41;88.60;96768.25;2011744;29;20414;-60
2022/06/11 04:18:48;;;;;;;12.75;7.93;;;;;;;10.43;88.83;96769.88;2009340;29;20053;-60
2022/06/11 04:19:50;;;;;;;12.70;8.50;;;;;;;10.44;87.71;96765.53;2010001;29;20053;-60
2022/06/11 04:20:51;;;;;;;15.32;8.98;;;;;;;10.46;87.34;96761.16;2010304;29;20052;-59
2022/06/11 04:21:52;;;;;;;14.95;9.30;;;;;;;10.53;87.33;96766.06;2009284;29;20620;-59
2022/06/11 04:22:54;;;;;;;10.50;7.82;;;;;;;10.59;88.04;96771.06;2002124;29;20056;-58
2022/06/11 04:23:57;;;;;;;10.48;7.90;;;;;;;10.66;88.18;96770.81;2002419;29;20114;-60
2022/06/11 04:24:58;;;;;;;12.93;8.23;;;;;;;10.67;87.98;96775.13;2009815;29;20056;-59
2022/06/11 04:26:01;;;;;;;12.18;7.80;;;;;;;10.73;87.76;96775.75;2014348;29;20046;-60
2022/06/11 04:27:04;;;;;;;11.90;8.00;;;;;;;10.77;87.56;96779.09;2005373;29;20321;-59
2022/06/11 04:28:05;;;;;;;13.30;7.65;;;;;;;10.74;87.50;96767.03;2005422;29;20052;-59
2022/06/11 04:29:07;;;;;;;12.10;7.80;;;;;;;10.75;87.14;96768.75;2001844;29;20049;-60
2022/06/11 04:30:11;;;;;;;12.00;7.35;;;;;;;10.79;86.17;96775.53;2002248;29;20054;-60
2022/06/11 04:31:15;;;;;;;13.15;7.78;;;;;;;10.83;86.44;96765.91;1994435;29;20531;-60
2022/06/11 04:32:17;;;;;;;13.73;7.85;;;;;;;10.91;86.54;96766.47;2005777;29;20057;-60
2022/06/11 04:33:18;;;;;;;12.57;7.65;;;;;;;10.93;86.20;96771.59;2001527;29;20045;-59
2022/06/11 04:34:20;;;;;;;13.63;8.07;;;;;;;10.93;85.63;96775.06;2002818;29;20058;-60
2022/06/11 04:35:21;;;;;;;12.73;7.65;;;;;;;10.99;85.73;96777.44;2017627;29;20053;-60
2022/06/11 04:36:23;;;;;;;10.70;7.47;;;;;;;11.05;86.30;96771.16;2010025;29;20532;-60
2022/06/11 04:37:27;;;;;;;10.50;7.68;;;;;;;11.05;85.91;96773.75;2010064;29;20592;-60
2022/06/11 04:38:28;;;;;;;12.18;7.32;;;;;;;11.03;84.47;96779.00;2017450;29;20430;-60
2022/06/11 04:39:30;;;;;;;9.45;6.88;;;;;;;11.06;84.84;96778.03;2024214;29;20059;-60
2022/06/11 04:40:31;;;;;;;11.15;7.25;;;;;;;11.03;84.95;96768.59;2009805;29;20045;-60
2022/06/11 04:41:33;;;;;;;14.35;7.03;;;;;;;11.11;84.63;96770.91;2010170;29;20060;-60
2022/06/11 04:42:35;;;;;;;11.73;7.32;;;;;;;11.16;85.04;96769.00;2017781;29;20045;-60
2022/06/11 04:43:36;;;;;;;13.43;7.13;;;;;;;11.17;85.02;96773.31;2010295;29;20054;-59
2022/06/11 04:44:39;;;;;;;12.25;7.93;;;;;;;11.23;84.83;96775.66;2017286;29;20045;-60
2022/06/11 04:45:41;;;;;;;12.80;6.82;;;;;;;11.28;84.21;96775.50;2009543;29;20049;-60
2022/06/11 04:46:42;;;;;;;11.77;7.38;;;;;;;11.34;83.91;96779.63;2009832;29;20434;-58
2022/06/11 04:47:44;;;;;;;9.63;6.88;;;;;;;11.38;83.42;96778.59;2011620;29;20061;-60
2022/06/11 04:48:45;;;;;;;8.95;6.55;;;;;;;11.44;84.01;96773.16;2009860;29;20594;-61
2022/06/11 04:49:47;;;;;;;11.85;7.25;;;;;;;11.48;83.68;96785.13;2008800;29;20135;-60
2022/06/11 04:50:48;;;;;;;7.57;5.65;;;;;;;11.52;82.62;96776.34;2016905;29;20049;-58
2022/06/11 04:51:49;;;;;;;9.30;7.10;;;;;;;11.57;82.47;96783.94;2009913;29;20069;-60
2022/06/11 04:52:51;;;;;;;10.98;6.47;;;;;;;11.55;82.46;96781.41;2009568;29;20049;-60
2022/06/11 04:53:52;;;;;;;10.77;6.50;;;;;;;11.60;81.89;96776.88;2009562;29;20520;-60
2022/06/11 04:54:53;;;;;;;11.50;6.93;;;;;;;11.55;81.78;96781.41;2009828;29;20056;-60
2022/06/11 04:55:54;;;;;;;10.35;6.80;;;;;;;11.62;81.73;96780.25;2024342;29;20075;-60
2022/06/11 04:56:55;;;;;;;9.80;6.15;;;;;;;11.61;81.86;96780.31;2009451;29;20110;-60
2022/06/11 04:57:57;;;;;;;10.93;6.53;;;;;;;11.62;81.16;96782.00;2009686;29;20076;-60
2022/06/11 04:58:58;;;;;;;8.27;6.35;;;;;;;11.70;81.83;96783.38;2010041;29;20058;-60
2022/06/11 04:59:59;;;;;;;9.23;6.95;;;;;;;11.77;81.25;96785.78;2001747;29;20054;-59
2022/06/11 05:01:00;;;;;;;9.77;7.30;;;;;;;11.83;81.07;96786.38;2009528;29;20061;-60
2022/06/11 05:02:02;;;;;;;11.30;6.63;;;;;;;11.87;81.27;96784.53;2017142;29;20053;-60
2022/06/11 05:03:03;;;;;;;11.73;6.57;;;;;;;11.87;80.94;96779.34;2009792;29;20053;-60
2022/06/11 05:04:04;;;;;;;12.00;6.30;;;;;;;11.91;80.67;96783.50;2010135;29;20102;-61
2022/06/11 05:05:06;;;;;;;10.73;6.20;;;;;;;12.00;80.59;96788.34;2017319;29;20545;-60
2022/06/11 05:06:08;;;;;;;11.35;6.50;;;;;;;12.04;80.74;96787.31;2002250;29;20066;-60